Погода Затоны 2на 2 недели

Могилёвская область, Белоруссия

27 мая-08 июня
  • 27мая
    Сегодня
    +14°
    +27°
    Практически безоблачно
    ВремяПогодаТемператураВлажностьДавлениеВетер, м/сВероятность осадков
    00:00Ясно и безоблачно+15°C76 %755 мм1.8 м/с2 %
    03:00Ясно и безоблачно+13°C88 %755 мм1.8 м/с2 %
    06:00Ясно и безоблачно+14°C83 %755 мм2.1 м/с2 %
    09:00Ясно и безоблачно+21°C58 %755 мм1.6 м/с2 %
    12:00Практически безоблачно+26°C39 %755 мм2.5 м/с1 %
    15:00Практически безоблачно+26°C38 %755 мм2.2 м/с6 %
    18:00Ясно и безоблачно+26°C40 %754 мм2.2 м/с13 %
    21:00Практически безоблачно+21°C65 %754 мм2.3 м/с3 %
  • 28мая
    Вторник
    +14°
    +26°
    Практически безоблачно
    ВремяПогодаТемператураВлажностьДавлениеВетер, м/сВероятность осадков
    00:00Ясно и безоблачно+18°C76 %754 мм2.2 м/с2 %
    03:00Практически безоблачно+16°C85 %754 мм2.0 м/с2 %
    06:00Ясно и безоблачно+15°C82 %753 мм2.5 м/с2 %
    09:00Ясно и безоблачно+21°C63 %754 мм2.4 м/с2 %
    12:00Ясно и безоблачно+24°C46 %753 мм2.8 м/с2 %
    15:00Практически безоблачно+26°C40 %752 мм2.4 м/с7 %
    18:00Ясно и безоблачно+25°C37 %751 мм1.7 м/с18 %
    21:00Практически безоблачно+22°C55 %751 мм2.6 м/с7 %
  • 29мая
    Среда
    +14°
    +26°
    Ясно и безоблачно
    ВремяПогодаТемператураВлажностьДавлениеВетер, м/сВероятность осадков
    00:00Ясно и безоблачно+18°C70 %750 мм3.5 м/с2 %
    03:00Ясно и безоблачно+16°C72 %750 мм2.9 м/с2 %
    06:00Пасмурно, сплошная облачность+16°C69 %749 мм2.8 м/с2 %
    09:00Облачно с прояснениями+22°C56 %749 мм1.9 м/с2 %
    12:00Небольшая облачность+25°C43 %749 мм1.1 м/с3 %
    15:00Ясно и безоблачно+26°C34 %749 мм2.4 м/с15 %
    18:00Ясно и безоблачно+26°C35 %747 мм2.5 м/с4 %
    21:00Практически безоблачно+21°C54 %747 мм2.2 м/с2 %
  • 30мая
    Четверг
    +13°
    +27°
    Небольшая облачность
    ВремяПогодаТемператураВлажностьДавлениеВетер, м/сВероятность осадков
    00:00Облачно с прояснениями+17°C61 %747 мм3.2 м/с2 %
    03:00Облачно с прояснениями+15°C66 %746 мм2.8 м/с2 %
    06:00Облачно с прояснениями+16°C64 %745 мм3.1 м/с2 %
    09:00Облачно с прояснениями+21°C51 %746 мм3.6 м/с2 %
    12:00Облачно с прояснениями+24°C44 %746 мм4.1 м/с8 %
    15:00Небольшая облачность+25°C34 %745 мм4.7 м/с20 %
    18:00Ясно и безоблачно+26°C33 %744 мм4.5 м/с15 %
    21:00Практически безоблачно+22°C48 %745 мм2.1 м/с14 %
Мы используем cookies
Соглашаюсь